Groningen Airport Eelde

EHGG · Drenthe, 荷兰

罗盘
风向 的 风向 的 风向 到 风向 190° Groningen Airport Eelde 5/23
风: 16 kt, 4 beaufort

12 kt

11 kt
改变
0 ft 1.000 2.000 3.000 4.000 5.000
Cloud Cloud Cloud Cloud Cloud Cloud
BKN 2.000
Cloud Cloud Cloud Cloud Cloud Cloud Cloud Cloud
OVC 2.300
METAR EHGG 231155Z AUTO 19016KT 160V230 9999 BKN020 OVC023 07/03 Q0988 REDZ NOSIG

METAR Groningen Airport Eelde - EHGG/GRQ

Groningen Airport Eelde是,荷兰中的中型机场。 该机场位于纬度53,11791和经度6,57538。 该机场有一条跑道: 5/23. 本场的ICAO机场代码为EHGG。 该机场的IATA代码为GRQ。 机场在Amsterdam FIR中。

该航空气象观测是针对Groningen Airport Eelde在2024年2月23日 12:55, 当地时间进行的。

机场观察

风向为190°,速度为16 kt。 风向在160°和230°之间变化。

可见度为10 km 或者更多。

有碎云在2.000 ft的高度 和 乌云密布在2.300 ft的高度。 破损或更高的上限为2.000 ft。

温度为7 °C,阵风为1 °C。 露点为3 °C,相对湿度为76%。 海平面上的气压为988 hPa (QNH)。 最近是细雨。

白天

今天,太阳从07:35升起,在17:59降落。 这适用于Groningen Airport Eelde,世界夏令时可能有所不同。 当地时间与世界标准时间之间的时差为+1 小时。 当前,没有夏令时有效。

公司介绍

在这个机场,你可以找到飞行学校。 这个机场上的公司有Noord Nederlandse Aeroclub- Eelde, Skyline Aviation B.V., Martinair Flight Academy, KLM Luchtvaartschool 和 EFTC。

体会

到Vliegles.nl去找飞行课程,跳伞和其他飞行体验。 浏览页面,了解Groningen Airport Eelde附近所有可用的活动。 你也可以使用搜索功能来寻找你所在地附近的特定飞行课程、跳伞或其他飞行体验。

跑道

Id 标题 侧风 逆风 侧风 %
5/23 052°-232° 11 kt 12 kt 67 %

逆风成分最大的方向会被突出显示,并用于横风计算。 这并不一定意味着这个方向在使用。

乌云

2.000 ft BKN 碎云
2.300 ft OVC 乌云密布

温度 & 天气

最近的 细雨
温度 7 °C
露点 3 °C
相对湿度 76%
风寒 1 °C
Kp-index 0 (0-9)

白天

日出
07:35
中午
12:47
日落
17:59 (4:29)

小工具

你想在你的网站上有一个关于Groningen Airport Eelde的当前航空天气(METAR)的小部件吗?

显示HTML代码
?>